Terminal Aerodrome Forecast
Issued by NWS

Home | Current Version | Previous Version | Text Only | Print | Product List | Glossary On
Versions: 1 2 3 4 5 6 7 8 9 10 11 12 13 14 15 16
000
FTUS43 KILX 292340
TAFDEC
TAF
KDEC 292340Z 3000/3024 20015KT P6SM VCTS BKN050CB
      TEMPO 3000/3001 VRB20G32KT 5SM TSRA BR BKN035CB
     FM300500 20005KT P6SM -SHRA VCTS OVC035CB
     FM301000 16006KT 4SM -SHRA BR VCTS OVC025CB
     FM301600 16012KT 4SM -SHRA BR VCTS OVC012CB
     FM302000 33013G21KT 5SM -RA BR SCT006 OVC012=

USA.gov is the U.S. government's official web portal to all federal, state and local government web resources and services.